Auburn, IL

1:02 PM CST on March 02, 2015 (GMT -0600)
Royell Weather Station | Change Station
CLOSE
Current Station
Personal Weather Station
Location: Virden, IL
Elevation: 676 ft
Nearby Weather Stations

Elev 676 ft 39.50 °N, 89.77 °W | Updated 19 seconds ago

Partly Cloudy
Partly Cloudy
30.9 °F
Feels Like 27 °F
N
4.0
Wind Variable Wind from East
Gusts 5.0 mph

Today
High -- | Low -- °F
--% Chance of Precip.
Yesterday
High -- | Low -- °F
Precip. -- in
6:30 AM 5:52 PM
Waxing Gibbous, 92% visible
Pressure 30.52 in
Visibility 10.0 miles
Clouds Scattered Clouds 11000 ft
Windchill 27 °F
Dew Point 22 °F
Humidity 70%
Rainfall 0.00 in
Snow Depth Not available.
UV 5 out of 12
Pollen .50 out of 12
Air Quality Not available.
Flu Activity Not available.
METAR KSPI 021852Z 10005KT 10SM SCT110 00/M07 A3049 RMK AO2 UPB35E38SNB15E35 SLP335 P0000 T00001072

More Conditions Fewer Conditions

Pressure 30.52 in
Visibility 10.0 miles
Clouds Scattered Clouds 11000 ft
Windchill 27 °F
Dew Point 22 °F
Humidity 70%
Rainfall 0.00 in
Snow Depth Not available.
UV 5 out of 12
Pollen .50 out of 12
Air Quality Not available.
Flu Activity Not available.
METAR KSPI 021852Z 10005KT 10SM SCT110 00/M07 A3049 RMK AO2 UPB35E38SNB15E35 SLP335 P0000 T00001072

More Conditions Fewer Conditions

10-Day Weather Forecast

Almanac

Astronomy

Mar. 02, 2015 Rise Set
Actual Time
Civil Twilight
Nautical Twilight
Astronomical Twilight
Moon
Length of Visible Light
Length of Day
Tomorrow will be .
, % of the Moon is Illuminated

Today's Extremes

State Highs State Lows

Community

WunderPhotos

Upload Photos

1,801,913 photos uploaded!

WunderBlogs® & News

Nearby

Air Quality

  Air Quality AQ Index Pollutant
Not available.

Snow Depth

Station Depth Elevation

Earthquake Activity

City Distance Mag. Time & Date
Minimum magnitude displayed is 2.5.

Coastal Water Temperatures

Place Temperature

Nearby Weather Stations